Bunker Hill, KS (67626)

04:26 PM CST del 18 Dicembre 2014 (GMT -0600)
Russell Municipal | Change Station
CLOSE
Current Station
Aeroporto
Location: Russell,
Altitudine: 1864 ft
Stazioni meteo nelle vicinanze

Alt. 1864 ft 38.87 °N, 98.81 °W | Updated 33 minutes ago

Coperto
Coperto
31 °F
Sembra 26 °F
N
5
Vento Variabile Vento da ESE

Oggi
Massima -- | Minima -- °F
--% Possibilità di precip.
Ieri
Massima -- | Minima -- °F
Precip. -- in
7:47 AM 5:14 PM
Luna calante, 12% visible
Pressione 30.20 in
Visibilità 8.0 miglia
Nuvole Coperto 1200 ft
Raffreddamento del vento 26 °F
Punto di rugiada 28 °F
Umidità 89%
Piovosità 0.02 in
Spessore del manto nevoso Non disponibile.
Raggi UV 0 fuori da 12
Polline .10 fuori da 12
Qualità dell'aria Non disponibile.
Flu Activity Non disponibile.
METAR KRSL 182153Z AUTO 11004KT 8SM OVC012 M01/M02 A3014 RMK AO2 SLP227 T10061022

More Conditions Fewer Conditions

Pressione 30.20 in
Visibilità 8.0 miglia
Nuvole Coperto 1200 ft
Raffreddamento del vento 26 °F
Punto di rugiada 28 °F
Umidità 89%
Piovosità 0.02 in
Spessore del manto nevoso Non disponibile.
Raggi UV 0 fuori da 12
Polline .10 fuori da 12
Qualità dell'aria Non disponibile.
Flu Activity Non disponibile.
METAR KRSL 182153Z AUTO 11004KT 8SM OVC012 M01/M02 A3014 RMK AO2 SLP227 T10061022

More Conditions Fewer Conditions

10-Day Weather Forecast

Almanac

Astronomia

Dec. 18, 2014 Alba Tramonto
Ora attuale
Crepuscolo civile
Crepuscolo nautico
Crepuscolo astronomico
Luna
Estensione della luce visibile
Lunghezza del giorno
Tomorrow will be .
, % of the Moon is Illuminated

Gli estremi di oggi

State Highs State Lows

Community

WunderPhotos

Upload Photos

1,779,010 foto caricate!

WunderBlogs® & News

Nearby

Qualità dell'aria

  Qualità dell'aria Indice AQ Inquinante
Not available.

Profondità neve

Stazione Profondità Altitudine

Attività sismica

Città  Distanza Mag. Data & Ora
Minimo Magnitudo Mostrato è 2.5.

Temperature delle acque costiere

Località Temperatura

Stazioni meteo nelle vicinanze